createdAt,value
2023-02-14T00:04:05.952Z,79.71
2023-02-14T00:09:15.806Z,79.90
2023-02-14T00:14:39.907Z,79.53
2023-02-14T00:19:46.073Z,79.56
2023-02-14T00:24:52.019Z,79.57
2023-02-14T00:29:59.753Z,79.70
2023-02-14T00:35:06.108Z,79.58
2023-02-14T00:40:10.735Z,79.53
2023-02-14T00:45:14.720Z,79.33
2023-02-14T00:50:19.354Z,79.77
2023-02-14T00:55:23.987Z,79.52
2023-02-14T01:00:29.179Z,79.54
2023-02-14T01:05:34.116Z,79.71
2023-02-14T01:10:39.638Z,79.78
2023-02-14T01:15:47.707Z,79.65
2023-02-14T01:20:51.476Z,79.78
2023-02-14T01:25:55.690Z,79.62
2023-02-14T01:31:11.876Z,79.69
2023-02-14T01:36:24.240Z,79.79
2023-02-14T01:41:31.298Z,79.97
2023-02-14T01:46:37.732Z,79.95
2023-02-14T01:51:55.718Z,79.91
2023-02-14T01:57:06.894Z,79.90
2023-02-14T02:02:12.444Z,79.80
2023-02-14T02:07:25.573Z,80.00
2023-02-14T02:12:30.994Z,80.08
2023-02-14T02:17:54.606Z,80.26
2023-02-14T02:23:11.644Z,80.11
2023-02-14T02:28:43.040Z,79.96
2023-02-14T02:34:13.312Z,80.23
2023-02-14T02:39:24.508Z,80.37
2023-02-14T02:44:43.625Z,80.43
2023-02-14T02:50:13.001Z,80.54
2023-02-14T02:56:01.447Z,80.54
2023-02-14T03:01:14.258Z,80.46
2023-02-14T03:06:18.805Z,80.59
2023-02-14T03:11:25.394Z,80.51
2023-02-14T03:16:48.363Z,80.68
2023-02-14T03:22:18.605Z,80.72
2023-02-14T03:27:34.612Z,80.53
2023-02-14T03:32:57.275Z,80.82
2023-02-14T03:38:11.140Z,80.54
2023-02-14T03:43:35.048Z,80.65
2023-02-14T03:48:41.583Z,80.81
2023-02-14T03:53:48.041Z,80.97
2023-02-14T03:58:56.301Z,81.08
2023-02-14T04:04:01.530Z,81.19
2023-02-14T04:09:06.377Z,80.99
2023-02-14T04:14:09.798Z,81.18
2023-02-14T04:19:26.974Z,81.14
2023-02-14T04:24:31.850Z,81.10
2023-02-14T04:29:41.853Z,81.40
2023-02-14T04:34:47.288Z,81.50
2023-02-14T04:39:52.156Z,81.38
2023-02-14T04:44:56.965Z,81.51
2023-02-14T04:50:02.188Z,81.76
2023-02-14T04:55:08.943Z,81.69
2023-02-14T05:00:14.566Z,81.92
2023-02-14T05:05:19.048Z,82.11
2023-02-14T05:10:22.469Z,82.21
2023-02-14T05:15:27.789Z,82.25
2023-02-14T05:20:33.147Z,82.18
2023-02-14T05:25:38.595Z,82.38
2023-02-14T05:30:43.680Z,82.29
2023-02-14T05:35:48.361Z,82.24
2023-02-14T05:40:53.082Z,82.32
2023-02-14T05:45:57.967Z,82.47
2023-02-14T05:51:10.225Z,82.37
2023-02-14T05:56:14.072Z,82.48
2023-02-14T06:01:17.510Z,82.53
2023-02-14T06:06:21.135Z,82.52
2023-02-14T06:11:25.603Z,82.53
2023-02-14T06:16:30.265Z,82.67
2023-02-14T06:21:34.940Z,82.58
2023-02-14T06:26:39.279Z,82.69
2023-02-14T06:31:44.880Z,82.71
2023-02-14T06:36:50.335Z,82.61
2023-02-14T06:41:55.119Z,82.51
2023-02-14T06:47:01.330Z,82.94
2023-02-14T06:52:06.499Z,82.84
2023-02-14T06:57:10.821Z,82.73
2023-02-14T07:02:16.511Z,82.72
2023-02-14T07:07:21.260Z,82.71
2023-02-14T07:12:25.983Z,82.88
2023-02-14T07:17:30.002Z,83.06
2023-02-14T07:22:34.212Z,82.94
2023-02-14T07:27:41.068Z,82.91
2023-02-14T07:32:45.787Z,82.67
2023-02-14T07:37:53.947Z,82.60
2023-02-14T07:42:58.802Z,82.81
2023-02-14T07:48:02.757Z,82.77
2023-02-14T07:53:06.419Z,82.71
2023-02-14T07:58:10.466Z,82.68
2023-02-14T08:03:14.714Z,82.57
2023-02-14T08:08:18.863Z,82.69
2023-02-14T08:13:22.885Z,82.63
2023-02-14T08:18:29.163Z,82.44
2023-02-14T08:23:34.321Z,82.64
2023-02-14T08:28:38.300Z,82.70
2023-02-14T08:33:45.186Z,82.33
2023-02-14T08:38:50.408Z,82.30
2023-02-14T08:43:54.742Z,82.29
2023-02-14T08:48:59.354Z,82.27
2023-02-14T08:54:04.241Z,82.16
2023-02-14T08:59:09.034Z,82.27
2023-02-14T09:04:13.600Z,82.16
2023-02-14T09:09:22.215Z,81.76
2023-02-14T09:14:25.989Z,81.88
2023-02-14T09:19:30.947Z,81.88
2023-02-14T09:24:41.188Z,81.95
2023-02-14T09:29:46.596Z,81.65
2023-02-14T09:34:55.416Z,81.75
2023-02-14T09:40:00.778Z,81.96
2023-02-14T09:45:13.206Z,81.94
2023-02-14T09:50:31.664Z,82.15
2023-02-14T09:55:48.076Z,81.90
2023-02-14T10:00:56.177Z,81.84
2023-02-14T10:06:11.729Z,81.93
2023-02-14T10:11:21.050Z,81.89
2023-02-14T10:16:35.213Z,81.46
2023-02-14T10:21:50.246Z,81.48
2023-02-14T10:27:03.292Z,81.78
2023-02-14T10:32:20.546Z,81.43
2023-02-14T10:38:18.886Z,81.48
2023-02-14T10:43:50.330Z,81.40
2023-02-14T10:49:27.149Z,81.62
2023-02-14T10:54:42.332Z,81.17
2023-02-14T11:00:01.076Z,81.49
2023-02-14T11:05:08.513Z,81.39
2023-02-14T11:10:15.752Z,81.37
2023-02-14T11:15:28.620Z,81.02
2023-02-14T11:20:33.387Z,80.79
2023-02-14T11:25:38.102Z,81.08
2023-02-14T11:30:46.758Z,80.67
2023-02-14T11:35:53.122Z,80.74
2023-02-14T11:40:59.593Z,81.04
2023-02-14T11:46:16.725Z,80.75
2023-02-14T11:51:29.586Z,80.69
2023-02-14T11:56:57.624Z,80.54
2023-02-14T12:02:25.032Z,80.41
2023-02-14T12:07:36.941Z,80.12
2023-02-14T12:12:51.779Z,79.96
2023-02-14T12:18:24.291Z,80.10
2023-02-14T12:23:43.144Z,80.54
2023-02-14T12:28:59.343Z,80.22
2023-02-14T12:34:05.755Z,80.39
2023-02-14T12:39:23.066Z,80.03
2023-02-14T12:45:07.221Z,80.19
2023-02-14T12:50:52.281Z,80.02
2023-02-14T12:56:36.005Z,79.82
2023-02-14T13:02:02.684Z,80.37
2023-02-14T13:07:28.888Z,79.83
2023-02-14T13:12:40.725Z,79.82
2023-02-14T13:17:58.334Z,79.54
2023-02-14T13:23:07.019Z,79.71
2023-02-14T13:28:17.591Z,79.76
2023-02-14T13:33:39.711Z,79.63
2023-02-14T13:38:56.279Z,79.56
2023-02-14T13:44:02.957Z,79.79
2023-02-14T13:49:37.568Z,79.83
2023-02-14T13:54:51.196Z,79.86
2023-02-14T14:00:17.166Z,79.49
2023-02-14T14:05:51.079Z,79.93
2023-02-14T14:11:01.221Z,79.84
2023-02-14T14:16:25.389Z,79.57
2023-02-14T14:21:36.020Z,79.78
2023-02-14T14:26:54.153Z,79.41
2023-02-14T14:31:59.429Z,79.35
2023-02-14T14:37:08.198Z,79.53
2023-02-14T14:42:17.920Z,79.46
2023-02-14T14:47:29.467Z,79.55
2023-02-14T14:52:39.938Z,79.63
2023-02-14T14:57:53.711Z,79.75
2023-02-14T15:03:08.949Z,79.44
2023-02-14T15:08:16.249Z,79.58
2023-02-14T15:13:55.417Z,79.77
2023-02-14T15:19:13.148Z,80.02
2023-02-14T15:24:20.004Z,80.18
2023-02-14T15:29:32.792Z,79.71
2023-02-14T15:34:38.532Z,79.58
2023-02-14T15:39:47.505Z,79.60
2023-02-14T15:44:52.481Z,79.51
2023-02-14T15:49:56.476Z,79.53
2023-02-14T15:55:00.364Z,79.59
2023-02-14T16:00:17.252Z,79.61
2023-02-14T16:05:22.099Z,79.53
2023-02-14T16:10:29.397Z,79.67
2023-02-14T16:15:36.666Z,79.87
2023-02-14T16:20:51.665Z,80.07
2023-02-14T16:26:00.367Z,79.98
2023-02-14T16:31:11.316Z,79.85
2023-02-14T16:36:27.698Z,79.97
2023-02-14T16:41:33.867Z,80.05
2023-02-14T16:46:38.092Z,79.96
2023-02-14T16:51:45.766Z,80.10
2023-02-14T16:56:58.622Z,80.25
2023-02-14T17:02:02.754Z,80.12
2023-02-14T17:07:07.445Z,80.10
2023-02-14T17:12:16.902Z,80.12
2023-02-14T17:17:21.307Z,80.23
2023-02-14T17:22:25.052Z,79.96
2023-02-14T17:27:29.816Z,80.03
2023-02-14T17:32:35.765Z,79.95
2023-02-14T17:37:40.817Z,80.01
2023-02-14T17:42:46.339Z,80.23
2023-02-14T17:47:50.279Z,80.16
2023-02-14T17:53:03.455Z,79.92
2023-02-14T17:58:19.195Z,80.00
2023-02-14T18:03:26.176Z,80.04
2023-02-14T18:08:32.163Z,79.92
2023-02-14T18:13:36.401Z,80.09
2023-02-14T18:18:40.673Z,80.17
2023-02-14T18:23:45.407Z,80.02
2023-02-14T18:28:52.297Z,80.14
2023-02-14T18:33:57.314Z,80.30
2023-02-14T18:39:01.458Z,80.16
2023-02-14T18:44:05.811Z,80.34
2023-02-14T18:49:09.791Z,80.38
2023-02-14T18:54:14.941Z,80.63
2023-02-14T18:59:18.464Z,80.47
2023-02-14T19:04:22.044Z,80.33
2023-02-14T19:09:27.938Z,80.25
2023-02-14T19:14:31.318Z,80.15
2023-02-14T19:19:35.428Z,79.91
2023-02-14T19:24:39.934Z,79.89
2023-02-14T19:29:44.914Z,79.76
2023-02-14T19:34:49.074Z,79.42
2023-02-14T19:39:52.746Z,79.71
2023-02-14T19:44:57.534Z,79.57
2023-02-14T19:50:01.785Z,79.51
2023-02-14T19:55:08.120Z,79.49
2023-02-14T20:00:14.626Z,79.42
2023-02-14T20:05:20.798Z,79.61
2023-02-14T20:10:27.286Z,79.64
2023-02-14T20:15:34.044Z,80.19
2023-02-14T20:20:58.463Z,79.95
2023-02-14T20:26:03.775Z,80.38
2023-02-14T20:31:11.549Z,80.72
2023-02-14T20:36:16.255Z,80.84
2023-02-14T20:41:19.792Z,81.11
2023-02-14T20:46:23.630Z,81.43
2023-02-14T20:51:29.017Z,81.33
2023-02-14T20:56:34.003Z,81.41
2023-02-14T21:01:38.988Z,81.15
2023-02-14T21:06:43.098Z,81.59
2023-02-14T21:11:50.741Z,81.77
2023-02-14T21:16:55.721Z,82.07
2023-02-14T21:22:01.604Z,82.09
2023-02-14T21:27:06.474Z,81.84
2023-02-14T21:32:11.680Z,81.94
2023-02-14T21:37:16.293Z,81.84
2023-02-14T21:42:22.708Z,82.23
2023-02-14T21:47:29.492Z,82.32
2023-02-14T21:52:35.510Z,82.29
2023-02-14T21:57:40.036Z,82.49
2023-02-14T22:02:44.807Z,82.28
2023-02-14T22:07:49.780Z,82.45
2023-02-14T22:12:56.661Z,82.74
2023-02-14T22:18:01.370Z,82.55
2023-02-14T22:23:05.650Z,82.53
2023-02-14T22:28:12.431Z,82.84
2023-02-14T22:33:17.095Z,82.81
2023-02-14T22:38:24.706Z,83.03
2023-02-14T22:43:31.059Z,83.25
2023-02-14T22:48:38.276Z,83.17
2023-02-14T22:53:44.474Z,83.48
2023-02-14T22:58:54.161Z,83.25
2023-02-14T23:04:00.477Z,83.24
2023-02-14T23:09:08.071Z,83.63
2023-02-14T23:14:33.570Z,83.18
2023-02-14T23:19:58.446Z,83.40
2023-02-14T23:25:06.721Z,83.36
2023-02-14T23:30:16.800Z,83.51
2023-02-14T23:35:22.222Z,83.45
2023-02-14T23:40:28.542Z,83.55
2023-02-14T23:45:36.986Z,83.75
2023-02-14T23:50:43.323Z,83.58
2023-02-14T23:55:49.075Z,83.77
